Time;durP1;ratioP1;P1;durP2;ratioP2;P2;SDS_P1;SDS_P2;PMS_P1;PMS_P2;Temp;Humidity;BMP_temperature;BMP_pressure;BME280_temperature;BME280_humidity;BME280_pressure;Samples;Min_cycle;Max_cycle;Signal;HPM_P1;HPM_P2
2022/03/12 00:02:09;;;;;;;;;;;;;;;-2.20;93.02;102032.75;4982362;28;19977;-83
2022/03/12 00:04:34;;;;;;;;;;;;;;;-2.17;93.06;102027.03;4985568;28;19926;-83
2022/03/12 00:07:00;;;;;;;;;;;;;;;-2.18;93.28;102017.28;4999182;28;19933;-83
2022/03/12 00:09:26;;;;;;;;;;;;;;;-2.14;93.00;102010.56;4983042;28;19956;-83
2022/03/12 00:11:56;;;;;;;;;;;;;;;-2.10;93.12;102013.75;4985033;28;19926;-82
2022/03/12 00:14:22;;;;;;;;;;;;;;;-2.11;93.51;102015.59;4989521;28;19926;-83
2022/03/12 00:16:49;;;;;;;;;;;;;;;-2.07;93.50;102016.97;4984334;28;20664;-83
2022/03/12 00:19:14;;;;;;;;;;;;;;;-2.01;93.61;102010.09;4986341;28;19937;-82
2022/03/12 00:21:41;;;;;;;;;;;;;;;-1.95;93.64;102009.41;4984199;28;19926;-83
2022/03/12 00:24:10;;;;;;;;;;;;;;;-1.93;93.22;102021.69;4997224;28;20028;-83
2022/03/12 00:26:38;;;;;;;;;;;;;;;-1.91;93.99;102029.59;4987984;28;19926;-83
2022/03/12 00:29:04;;;;;;;;;;;;;;;-1.90;94.07;102020.56;4970565;28;20396;-83
2022/03/12 00:31:30;;;;;;;;;;;;;;;-1.90;93.70;102020.56;4984622;28;19972;-83
2022/03/12 00:33:56;;;;;;;;;;;;;;;-1.89;93.65;102022.22;4983120;28;19926;-83
2022/03/12 00:36:21;;;;;;;;;;;;;;;-1.89;94.01;102020.38;4976936;28;20472;-83
2022/03/12 00:38:47;;;;;;;;;;;;;;;-1.86;94.16;102019.19;4994912;28;20455;-83
2022/03/12 00:41:12;;;;;;;;;;;;;;;-1.83;93.47;102021.56;4987410;28;19933;-83
2022/03/12 00:43:38;;;;;;;;;;;;;;;-1.79;93.42;102022.91;4995697;28;20371;-83
2022/03/12 00:46:05;;;;;;;;;;;;;;;-1.74;93.49;102023.22;4985841;28;20017;-83
2022/03/12 00:48:31;;;;;;;;;;;;;;;-1.72;93.59;102028.47;4987875;28;19964;-84
2022/03/12 00:50:56;;;;;;;;;;;;;;;-1.72;93.74;102040.09;4983271;28;19933;-83
2022/03/12 00:53:22;;;;;;;;;;;;;;;-1.74;93.17;102036.69;4989552;28;19937;-84
2022/03/12 00:55:47;;;;;;;;;;;;;;;-1.77;93.36;102037.03;4984058;28;19930;-84
2022/03/12 00:58:13;;;;;;;;;;;;;;;-1.79;93.70;102038.19;4986156;28;19937;-83
2022/03/12 01:00:38;;;;;;;;;;;;;;;-1.82;92.93;102034.00;4991781;28;19976;-83
2022/03/12 01:03:04;;;;;;;;;;;;;;;-1.83;93.25;102032.31;4987252;28;19926;-84
2022/03/12 01:05:59;;;;;;;;;;;;;;;-1.83;93.42;102033.16;4995307;28;19984;-84
2022/03/12 01:08:24;;;;;;;;;;;;;;;-1.87;92.64;102033.66;4978197;28;19930;-84
2022/03/12 01:10:50;;;;;;;;;;;;;;;-1.87;92.89;102036.34;4987521;28;19960;-84
2022/03/12 01:13:16;;;;;;;;;;;;;;;-1.92;92.86;102033.28;4987578;28;19952;-84
2022/03/12 01:15:41;;;;;;;;;;;;;;;-1.95;92.61;102028.25;4987051;28;19932;-83
2022/03/12 01:18:12;;;;;;;;;;;;;;;-1.96;92.98;102029.25;4987383;28;19929;-84
2022/03/12 01:20:38;;;;;;;;;;;;;;;-1.96;92.22;102026.56;4983002;28;19937;-83
2022/03/12 01:23:04;;;;;;;;;;;;;;;-1.97;92.80;102032.97;4982615;28;19930;-84
2022/03/12 01:25:30;;;;;;;;;;;;;;;-2.00;92.69;102028.75;4980268;28;19926;-83
2022/03/12 01:27:55;;;;;;;;;;;;;;;-2.02;92.35;102030.78;4985008;28;19936;-85
2022/03/12 01:30:25;;;;;;;;;;;;;;;-2.03;92.48;102031.78;4985869;28;20281;-84
2022/03/12 01:32:51;;;;;;;;;;;;;;;-2.05;92.75;102033.78;4982267;28;20404;-84
2022/03/12 01:35:16;;;;;;;;;;;;;;;-2.07;92.49;102027.75;4997438;28;20015;-84
2022/03/12 01:37:41;;;;;;;;;;;;;;;-2.07;92.89;102026.91;4981628;28;19926;-83
2022/03/12 01:40:07;;;;;;;;;;;;;;;-2.10;92.00;102025.34;4985884;28;20525;-84
2022/03/12 01:42:34;;;;;;;;;;;;;;;-2.10;92.68;102027.19;4989514;28;20270;-84
2022/03/12 01:44:59;;;;;;;;;;;;;;;-2.11;92.72;102020.97;4985545;28;19925;-84
2022/03/12 01:47:25;;;;;;;;;;;;;;;-2.10;92.55;102016.44;4984502;28;19972;-83
2022/03/12 01:49:52;;;;;;;;;;;;;;;-2.09;92.38;102020.81;4982238;28;19926;-83
2022/03/12 01:52:20;;;;;;;;;;;;;;;-2.07;92.77;102025.06;4997739;28;19953;-84
2022/03/12 01:54:46;;;;;;;;;;;;;;;-2.07;92.02;102016.97;4984164;28;19926;-84
2022/03/12 01:57:11;;;;;;;;;;;;;;;-2.07;92.17;102008.91;4993656;28;19949;-84
2022/03/12 01:59:37;;;;;;;;;;;;;;;-2.06;92.15;102023.19;4985374;28;20440;-85
2022/03/12 02:02:04;;;;;;;;;;;;;;;-2.07;92.53;102024.22;4981877;28;19933;-84
2022/03/12 02:04:30;;;;;;;;;;;;;;;-2.07;92.41;102026.91;4984150;28;19925;-84
2022/03/12 02:06:59;;;;;;;;;;;;;;;-2.07;92.78;102032.28;4984115;28;19926;-83
2022/03/12 02:09:25;;;;;;;;;;;;;;;-2.09;92.44;102039.63;4984146;28;19977;-83
2022/03/12 02:11:51;;;;;;;;;;;;;;;-2.13;92.05;102039.13;4997302;28;19948;-83
2022/03/12 02:14:18;;;;;;;;;;;;;;;-2.17;92.62;102041.31;4985681;28;19926;-83
2022/03/12 02:16:54;;;;;;;;;;;;;;;-2.17;92.47;102041.31;4986067;28;19925;-83
2022/03/12 02:19:20;;;;;;;;;;;;;;;-2.16;92.47;102034.94;4984714;28;19972;-83
2022/03/12 02:22:01;;;;;;;;;;;;;;;-2.11;92.06;102037.13;4987097;28;20021;-84
2022/03/12 02:24:28;;;;;;;;;;;;;;;-2.11;92.30;102045.19;4983319;28;19925;-83
2022/03/12 02:26:54;;;;;;;;;;;;;;;-2.10;92.38;102043.34;4981361;28;19933;-83
2022/03/12 02:29:20;;;;;;;;;;;;;;;-2.09;92.32;102045.03;4983807;28;19926;-83
2022/03/12 02:31:48;;;;;;;;;;;;;;;-2.14;92.21;102042.81;4988403;28;19926;-83
2022/03/12 02:34:13;;;;;;;;;;;;;;;-2.17;92.08;102051.22;4995824;28;19925;-83
2022/03/12 02:36:39;;;;;;;;;;;;;;;-2.18;92.58;102044.16;4983755;28;19926;-83
2022/03/12 02:39:05;;;;;;;;;;;;;;;-2.18;92.16;102045.00;4989971;28;20083;-82
2022/03/12 02:41:55;;;;;;;;;;;;;;;-2.19;92.34;102046.00;4992013;28;19925;-82
2022/03/12 02:44:21;;;;;;;;;;;;;;;-2.18;92.13;102047.69;4998610;28;19926;-81
2022/03/12 02:47:13;;;;;;;;;;;;;;;-2.16;92.45;102042.16;4984781;28;19972;-83
2022/03/12 02:49:45;;;;;;;;;;;;;;;-2.14;92.08;102046.34;4997457;28;20032;-82
2022/03/12 02:52:10;;;;;;;;;;;;;;;-2.13;92.23;102045.34;4983161;28;20366;-83
2022/03/12 02:54:36;;;;;;;;;;;;;;;-2.10;92.66;102037.97;4996028;28;19929;-83
2022/03/12 02:57:02;;;;;;;;;;;;;;;-2.09;92.19;102036.94;4983437;28;19933;-82
2022/03/12 02:59:27;;;;;;;;;;;;;;;-2.12;92.04;102035.44;4990145;28;19931;-84
2022/03/12 03:01:59;;;;;;;;;;;;;;;-2.10;91.71;102040.66;4988841;28;19933;-84
2022/03/12 03:04:25;;;;;;;;;;;;;;;-2.07;92.42;102033.13;4992762;28;19961;-84
2022/03/12 03:06:50;;;;;;;;;;;;;;;-2.07;92.17;102037.66;4985466;28;19973;-82
2022/03/12 03:09:15;;;;;;;;;;;;;;;-2.10;92.09;102041.50;4987332;28;20290;-83
2022/03/12 03:11:41;;;;;;;;;;;;;;;-2.14;92.04;102032.91;4985775;28;19930;-85
2022/03/12 03:14:12;;;;;;;;;;;;;;;-2.19;91.95;102043.31;4985357;28;19930;-82
2022/03/12 03:16:39;;;;;;;;;;;;;;;-2.26;92.06;102031.53;4973207;28;20577;-85
2022/03/12 03:19:05;;;;;;;;;;;;;;;-2.27;91.72;102037.06;4988834;28;19930;-84
2022/03/12 03:21:34;;;;;;;;;;;;;;;-2.30;92.19;102035.53;4986310;28;19930;-85
2022/03/12 03:24:00;;;;;;;;;;;;;;;-2.33;91.88;102033.19;4989323;28;19932;-85
2022/03/12 03:26:38;;;;;;;;;;;;;;;-2.34;91.52;102033.34;4985903;28;19925;-84
2022/03/12 03:29:04;;;;;;;;;;;;;;;-2.39;91.71;102036.53;4984676;28;19926;-84
2022/03/12 03:31:29;;;;;;;;;;;;;;;-2.43;91.86;102045.91;4981659;28;19933;-84
2022/03/12 03:33:55;;;;;;;;;;;;;;;-2.51;92.02;102052.09;4991210;28;19925;-84
2022/03/12 03:36:21;;;;;;;;;;;;;;;-2.54;91.48;102048.91;4989680;28;19952;-83
2022/03/12 03:38:46;;;;;;;;;;;;;;;-2.57;91.41;102046.53;4997962;28;19961;-83
2022/03/12 03:41:11;;;;;;;;;;;;;;;-2.62;92.18;102036.25;4987641;28;19926;-83
2022/03/12 03:43:37;;;;;;;;;;;;;;;-2.63;91.60;102052.53;4983358;28;19949;-83
2022/03/12 03:46:02;;;;;;;;;;;;;;;-2.64;91.79;102049.00;4988339;28;19926;-83
2022/03/12 03:48:28;;;;;;;;;;;;;;;-2.64;91.80;102049.00;4983495;28;20312;-83
2022/03/12 03:50:54;;;;;;;;;;;;;;;-2.62;91.76;102055.06;4997630;28;20199;-83
2022/03/12 03:53:23;;;;;;;;;;;;;;;-2.59;92.03;102059.28;4988207;28;20816;-84
2022/03/12 03:55:48;;;;;;;;;;;;;;;-2.57;92.01;102052.75;4985033;28;19953;-83
2022/03/12 03:58:14;;;;;;;;;;;;;;;-2.54;92.18;102059.66;4987136;28;20393;-83
2022/03/12 04:00:40;;;;;;;;;;;;;;;-2.51;92.60;102056.63;4995850;28;19926;-83
2022/03/12 04:03:05;;;;;;;;;;;;;;;-2.48;92.08;102059.00;4989253;28;19929;-82
2022/03/12 04:05:34;;;;;;;;;;;;;;;-2.48;92.35;102057.16;4978428;28;19926;-83
2022/03/12 04:08:00;;;;;;;;;;;;;;;-2.46;92.25;102063.19;4985732;28;19926;-85
2022/03/12 04:10:26;;;;;;;;;;;;;;;-2.45;92.52;102064.03;4978867;28;19926;-83
2022/03/12 04:12:52;;;;;;;;;;;;;;;-2.44;92.64;102061.19;4985190;28;19926;-83
2022/03/12 04:15:17;;;;;;;;;;;;;;;-2.44;92.23;102066.56;4982558;28;20286;-83
2022/03/12 04:17:44;;;;;;;;;;;;;;;-2.43;92.53;102062.03;4987125;28;19968;-85
2022/03/12 04:20:09;;;;;;;;;;;;;;;-2.47;92.21;102058.00;4981991;28;19926;-84
2022/03/12 04:22:37;;;;;;;;;;;;;;;-2.50;92.98;102063.69;4992307;28;19985;-84
2022/03/12 04:25:02;;;;;;;;;;;;;;;-2.45;92.13;102067.56;4985147;28;19925;-84
2022/03/12 04:27:28;;;;;;;;;;;;;;;-2.41;92.23;102064.59;4985179;28;19933;-86
2022/03/12 04:29:53;;;;;;;;;;;;;;;-2.40;92.44;102071.66;4984659;28;20019;-85
2022/03/12 04:32:19;;;;;;;;;;;;;;;-2.41;92.43;102065.44;4987604;28;19953;-87
2022/03/12 04:34:45;;;;;;;;;;;;;;;-2.41;92.05;102067.28;4984971;28;19997;-85
2022/03/12 04:37:12;;;;;;;;;;;;;;;-2.38;92.50;102062.41;4988039;28;19926;-85
2022/03/12 04:39:37;;;;;;;;;;;;;;;-2.33;92.05;102064.59;4982161;28;20614;-81
2022/03/12 04:42:03;;;;;;;;;;;;;;;-2.27;92.60;102066.63;4985013;28;20388;-80
2022/03/12 04:44:28;;;;;;;;;;;;;;;-2.16;92.32;102075.25;4989140;28;20466;-81
2022/03/12 04:46:54;;;;;;;;;;;;;;;-1.96;92.50;102077.69;4991807;28;20510;-84
2022/03/12 04:49:20;;;;;;;;;;;;;;;-1.77;92.29;102077.38;4984301;28;19933;-83
2022/03/12 04:51:46;;;;;;;;;;;;;;;-1.63;91.81;102083.97;4986582;28;19926;-83
2022/03/12 04:54:11;;;;;;;;;;;;;;;-1.48;92.12;102084.16;4990602;28;19926;-82
2022/03/12 04:56:37;;;;;;;;;;;;;;;-1.35;91.62;102084.53;4988363;28;19926;-82
2022/03/12 04:59:02;;;;;;;;;;;;;;;-1.22;91.98;102079.44;4997282;28;20017;-83
2022/03/12 05:01:28;;;;;;;;;;;;;;;-1.06;91.75;102081.31;4984848;28;20024;-82
2022/03/12 05:03:53;;;;;;;;;;;;;;;-0.86;91.42;102076.44;4984462;28;19925;-83
2022/03/12 05:06:20;;;;;;;;;;;;;;;-0.65;91.58;102074.00;4985940;28;19934;-82
2022/03/12 05:08:46;;;;;;;;;;;;;;;-0.40;90.73;102074.78;4984676;28;20797;-82
2022/03/12 05:11:11;;;;;;;;;;;;;;;-0.15;90.53;102081.75;4986596;28;20020;-82
2022/03/12 05:13:37;;;;;;;;;;;;;;;0.16;89.76;102081.75;4985802;28;19933;-82
2022/03/12 05:16:05;;;;;;;;;;;;;;;0.45;88.64;102080.25;4986300;28;19925;-83
2022/03/12 05:18:31;;;;;;;;;;;;;;;0.70;86.89;102089.88;4984117;28;20008;-83
2022/03/12 05:20:57;;;;;;;;;;;;;;;0.94;85.17;102074.47;4996217;28;19926;-83
2022/03/12 05:23:24;;;;;;;;;;;;;;;1.23;83.68;102084.50;4984218;28;20139;-83
2022/03/12 05:25:52;;;;;;;;;;;;;;;1.56;82.34;102084.97;4983937;28;19926;-83
2022/03/12 05:28:26;;;;;;;;;;;;;;;1.90;80.24;102087.09;5001408;28;19952;-84
2022/03/12 05:30:54;;;;;;;;;;;;;;;2.30;78.69;102083.03;4982226;28;20415;-82
2022/03/12 05:33:19;;;;;;;;;;;;;;;2.70;76.88;102085.09;4991822;28;19926;-81
2022/03/12 05:35:46;;;;;;;;;;;;;;;3.08;75.54;102087.53;4982548;28;20407;-83
2022/03/12 05:38:11;;;;;;;;;;;;;;;3.46;73.33;102092.59;4981867;28;20407;-82
2022/03/12 05:40:42;;;;;;;;;;;;;;;3.80;71.45;102087.16;5000307;28;20662;-82
2022/03/12 05:43:12;;;;;;;;;;;;;;;4.12;69.95;102087.53;4988164;28;19930;-82
2022/03/12 05:45:38;;;;;;;;;;;;;;;4.46;68.19;102086.59;4983849;28;19926;-83
2022/03/12 05:48:08;;;;;;;;;;;;;;;4.78;67.52;102090.41;4988176;28;19925;-83
2022/03/12 05:50:33;;;;;;;;;;;;;;;5.07;66.11;102089.19;4982974;28;19937;-83
2022/03/12 05:52:59;;;;;;;;;;;;;;;5.33;64.52;102091.06;4986539;28;19926;-83
2022/03/12 05:55:24;;;;;;;;;;;;;;;5.55;63.87;102086.19;4984274;28;20033;-83
2022/03/12 05:57:50;;;;;;;;;;;;;;;5.77;63.15;102084.91;4985817;28;19933;-82
2022/03/12 06:00:16;;;;;;;;;;;;;;;6.00;62.10;102087.16;4986052;28;19922;-83
2022/03/12 06:02:52;;;;;;;;;;;;;;;6.20;61.79;102089.81;4985339;28;19934;-82
2022/03/12 06:05:21;;;;;;;;;;;;;;;6.45;60.64;102093.47;4984387;28;19932;-83
2022/03/12 06:07:47;;;;;;;;;;;;;;;6.68;60.03;102095.63;4979450;28;19933;-83
2022/03/12 06:10:17;;;;;;;;;;;;;;;6.89;58.88;102095.25;4994704;28;20438;-84
2022/03/12 06:12:43;;;;;;;;;;;;;;;7.09;58.44;102095.09;4988928;28;19965;-83
2022/03/12 06:15:13;;;;;;;;;;;;;;;7.29;57.92;102097.69;4984025;28;19926;-83
2022/03/12 06:17:39;;;;;;;;;;;;;;;7.39;56.81;102106.19;4984282;28;19926;-82
2022/03/12 06:20:06;;;;;;;;;;;;;;;7.30;57.24;102095.78;4996564;28;19936;-82
2022/03/12 06:22:31;;;;;;;;;;;;;;;7.47;56.28;102105.94;4992325;28;19972;-82
2022/03/12 06:24:57;;;;;;;;;;;;;;;7.62;55.79;102099.25;4982377;28;19926;-84
2022/03/12 06:27:22;;;;;;;;;;;;;;;7.81;55.22;102098.22;4982636;28;19995;-82
2022/03/12 06:29:48;;;;;;;;;;;;;;;8.02;55.09;102105.13;4985686;28;19926;-81
2022/03/12 06:32:14;;;;;;;;;;;;;;;8.14;53.87;102098.66;4982342;28;19933;-83
2022/03/12 06:34:41;;;;;;;;;;;;;;;8.31;53.68;102103.50;4991811;28;20100;-85
2022/03/12 06:37:07;;;;;;;;;;;;;;;8.52;53.14;102099.47;4979598;28;19926;-84
2022/03/12 06:39:32;;;;;;;;;;;;;;;8.63;52.55;102102.25;4987596;28;20081;-82
2022/03/12 06:42:00;;;;;;;;;;;;;;;8.80;51.72;102096.94;4985319;28;20487;-83
2022/03/12 06:44:32;;;;;;;;;;;;;;;8.94;51.25;102101.16;4983928;28;20032;-83
2022/03/12 06:47:01;;;;;;;;;;;;;;;9.06;50.95;102099.28;4992167;28;19937;-83
2022/03/12 06:49:27;;;;;;;;;;;;;;;9.26;50.30;102101.69;4985601;28;19979;-84
2022/03/12 06:51:53;;;;;;;;;;;;;;;9.41;49.98;102103.13;4981953;28;20352;-83
2022/03/12 06:54:19;;;;;;;;;;;;;;;9.60;50.24;102096.44;4995809;28;19933;-82
2022/03/12 06:56:45;;;;;;;;;;;;;;;9.83;49.23;102101.91;4978267;28;19930;-83
2022/03/12 06:59:11;;;;;;;;;;;;;;;9.97;48.93;102108.81;4988136;28;19936;-82
2022/03/12 07:01:37;;;;;;;;;;;;;;;10.14;48.73;102108.88;4987409;28;20307;-82
2022/03/12 07:04:03;;;;;;;;;;;;;;;10.25;47.60;102110.81;4985315;28;19932;-84
2022/03/12 07:06:28;;;;;;;;;;;;;;;10.34;48.02;102107.66;4984359;28;19926;-83
2022/03/12 07:08:54;;;;;;;;;;;;;;;10.46;46.88;102111.22;4981688;28;19926;-84
2022/03/12 07:11:20;;;;;;;;;;;;;;;10.62;46.96;102104.94;4979531;28;19933;-83
2022/03/12 07:13:46;;;;;;;;;;;;;;;10.79;46.42;102108.56;4984313;28;19930;-83
2022/03/12 07:16:11;;;;;;;;;;;;;;;10.95;46.33;102108.84;4978378;28;19933;-84
2022/03/12 07:18:38;;;;;;;;;;;;;;;11.08;45.77;102109.31;4985853;28;20431;-83
2022/03/12 07:21:05;;;;;;;;;;;;;;;11.20;45.01;102109.25;4988391;28;19965;-83
2022/03/12 07:23:30;;;;;;;;;;;;;;;11.28;45.26;102114.34;4983865;28;20554;-83
2022/03/12 07:25:56;;;;;;;;;;;;;;;11.43;44.91;102111.81;4983000;28;19930;-83
2022/03/12 07:28:22;;;;;;;;;;;;;;;11.54;44.49;102110.09;4984794;28;19927;-83
2022/03/12 07:30:47;;;;;;;;;;;;;;;11.55;43.81;102110.91;4984183;28;19933;-84
2022/03/12 07:33:13;;;;;;;;;;;;;;;11.67;43.87;102119.91;4994098;28;19933;-83
2022/03/12 07:35:38;;;;;;;;;;;;;;;11.90;42.74;102116.13;4987902;28;19926;-84
2022/03/12 07:38:04;;;;;;;;;;;;;;;12.13;42.72;102129.63;4982940;28;19952;-83
2022/03/12 07:40:30;;;;;;;;;;;;;;;12.33;41.76;102118.91;4994801;28;19948;-84
2022/03/12 07:42:56;;;;;;;;;;;;;;;12.54;41.92;102124.66;5002204;28;20324;-84
2022/03/12 07:45:23;;;;;;;;;;;;;;;12.67;41.06;102127.84;4989074;28;20355;-84
2022/03/12 07:47:50;;;;;;;;;;;;;;;12.88;40.71;102128.88;4992724;28;19926;-83
2022/03/12 07:50:16;;;;;;;;;;;;;;;13.08;40.92;102121.91;4993371;28;19929;-83
2022/03/12 07:52:41;;;;;;;;;;;;;;;13.25;39.94;102128.97;4988751;28;19932;-83
2022/03/12 07:55:10;;;;;;;;;;;;;;;13.44;39.83;102128.56;4990734;28;19941;-83
2022/03/12 07:57:35;;;;;;;;;;;;;;;13.57;40.01;102136.41;4989589;28;19951;-84
2022/03/12 08:00:03;;;;;;;;;;;;;;;13.72;39.16;102141.19;4999111;28;20323;-82
2022/03/12 08:02:40;;;;;;;;;;;;;;;13.98;38.61;102136.66;4988302;28;20344;-83
2022/03/12 08:05:05;;;;;;;;;;;;;;;14.24;38.54;102134.88;4988213;28;20435;-82
2022/03/12 08:07:32;;;;;;;;;;;;;;;14.46;37.64;102133.59;4985874;28;19930;-83
2022/03/12 08:09:59;;;;;;;;;;;;;;;14.66;37.10;102143.06;4987238;28;19979;-83
2022/03/12 08:12:25;;;;;;;;;;;;;;;14.84;37.28;102133.44;4988533;28;20401;-83
2022/03/12 08:14:51;;;;;;;;;;;;;;;15.05;37.00;102140.66;4990174;28;20021;-83
2022/03/12 08:17:19;;;;;;;;;;;;;;;15.24;36.35;102139.00;4983479;28;20013;-84
2022/03/12 08:19:45;;;;;;;;;;;;;;;15.47;35.75;102139.56;4987727;28;19929;-84
2022/03/12 08:22:10;;;;;;;;;;;;;;;15.72;35.38;102135.97;4990915;28;19945;-83
2022/03/12 08:24:36;;;;;;;;;;;;;;;15.93;34.96;102132.88;4984869;28;19967;-84
2022/03/12 08:27:01;;;;;;;;;;;;;;;16.20;34.54;102134.47;4999325;28;19933;-84
2022/03/12 08:29:27;;;;;;;;;;;;;;;16.42;34.20;102134.91;4980104;28;19949;-83
2022/03/12 08:31:52;;;;;;;;;;;;;;;16.69;33.72;102128.19;4985274;28;19930;-84
2022/03/12 08:34:18;;;;;;;;;;;;;;;17.00;33.28;102135.16;4982486;28;19952;-83
2022/03/12 08:36:44;;;;;;;;;;;;;;;17.30;32.73;102127.72;4988893;28;19930;-83
2022/03/12 08:39:10;;;;;;;;;;;;;;;17.41;32.41;102129.31;4992387;28;20319;-83
2022/03/12 08:41:35;;;;;;;;;;;;;;;17.41;32.37;102132.09;4988707;28;20491;-84
2022/03/12 08:44:01;;;;;;;;;;;;;;;17.21;32.52;102137.81;4987167;28;19949;-83
2022/03/12 08:46:27;;;;;;;;;;;;;;;16.94;32.92;102130.78;4984744;28;20012;-83
2022/03/12 08:48:53;;;;;;;;;;;;;;;16.63;33.07;102134.81;4987350;28;19925;-83
2022/03/12 08:51:19;;;;;;;;;;;;;;;16.38;33.66;102135.78;4982576;28;20355;-83
2022/03/12 08:53:45;;;;;;;;;;;;;;;16.28;33.74;102134.69;4985213;28;19930;-83
2022/03/12 08:56:10;;;;;;;;;;;;;;;16.21;33.93;102130.59;4991839;28;20416;-82
2022/03/12 08:58:37;;;;;;;;;;;;;;;16.14;34.42;102135.56;4996155;28;20424;-83
2022/03/12 09:01:05;;;;;;;;;;;;;;;15.76;34.67;102135.13;4986120;28;19926;-83
2022/03/12 09:03:31;;;;;;;;;;;;;;;15.45;35.23;102127.97;4986734;28;19925;-82
2022/03/12 09:05:56;;;;;;;;;;;;;;;15.14;35.87;102125.19;4993784;28;20343;-82
2022/03/12 09:08:21;;;;;;;;;;;;;;;14.93;35.93;102123.50;4988707;28;20312;-83
2022/03/12 09:10:47;;;;;;;;;;;;;;;14.02;37.13;102130.31;4985052;28;19970;-82
2022/03/12 09:13:15;;;;;;;;;;;;;;;12.90;38.59;102131.38;4989444;28;19926;-82
2022/03/12 09:15:41;;;;;;;;;;;;;;;11.68;40.74;102130.66;4988819;28;19925;-81
2022/03/12 09:18:07;;;;;;;;;;;;;;;10.65;42.88;102139.31;4985269;28;19930;-82
2022/03/12 09:20:42;;;;;;;;;;;;;;;9.81;44.34;102138.88;4992211;28;19933;-83
2022/03/12 09:23:08;;;;;;;;;;;;;;;9.02;45.90;102136.41;4989465;28;19930;-82
2022/03/12 09:25:34;;;;;;;;;;;;;;;8.60;47.05;102137.44;4989137;28;20392;-81
2022/03/12 09:28:00;;;;;;;;;;;;;;;8.13;48.61;102143.47;4985103;28;19977;-82
2022/03/12 09:30:26;;;;;;;;;;;;;;;7.69;49.29;102143.75;5003090;28;19930;-83
2022/03/12 09:32:51;;;;;;;;;;;;;;;7.36;50.73;102153.06;4990175;28;19925;-82
2022/03/12 09:35:19;;;;;;;;;;;;;;;7.16;51.87;102145.03;4990168;28;19995;-83
2022/03/12 09:37:45;;;;;;;;;;;;;;;7.00;52.58;102151.03;4988218;28;20384;-84
2022/03/12 09:40:11;;;;;;;;;;;;;;;6.87;52.66;102149.22;4991368;28;19956;-83
2022/03/12 09:42:36;;;;;;;;;;;;;;;6.61;53.26;102160.31;4981800;28;19977;-83
2022/03/12 09:45:03;;;;;;;;;;;;;;;6.44;53.85;102157.25;4984804;28;20336;-84
2022/03/12 09:47:28;;;;;;;;;;;;;;;6.48;54.78;102160.34;4995269;28;19932;-84
2022/03/12 09:49:54;;;;;;;;;;;;;;;6.52;54.89;102154.25;4983998;28;19926;-83
2022/03/12 09:52:19;;;;;;;;;;;;;;;6.53;54.64;102152.34;4985168;28;19925;-83
2022/03/12 09:54:45;;;;;;;;;;;;;;;6.56;55.04;102154.63;4993350;28;19930;-83
2022/03/12 09:57:10;;;;;;;;;;;;;;;6.58;54.69;102149.81;4985879;28;19937;-83
2022/03/12 09:59:36;;;;;;;;;;;;;;;6.60;54.86;102151.28;4988206;28;19934;-83
2022/03/12 10:02:02;;;;;;;;;;;;;;;6.62;54.83;102149.19;4984221;28;19925;-83
2022/03/12 10:04:28;;;;;;;;;;;;;;;6.63;55.37;102150.00;4986501;28;20029;-83
2022/03/12 10:06:54;;;;;;;;;;;;;;;6.55;55.42;102155.69;4966103;28;19926;-82
2022/03/12 10:09:19;;;;;;;;;;;;;;;6.48;55.76;102163.09;4981981;28;20348;-82
2022/03/12 10:11:45;;;;;;;;;;;;;;;6.43;55.34;102171.09;4978357;28;19933;-83
2022/03/12 10:14:12;;;;;;;;;;;;;;;6.39;55.37;102176.13;5006837;28;20028;-82
2022/03/12 10:16:40;;;;;;;;;;;;;;;6.41;55.60;102167.72;4987582;28;19980;-83
2022/03/12 10:19:06;;;;;;;;;;;;;;;6.38;55.69;102168.16;4980891;28;19934;-81
2022/03/12 10:21:32;;;;;;;;;;;;;;;6.32;55.79;102170.69;4988016;28;19921;-80
2022/03/12 10:23:59;;;;;;;;;;;;;;;6.24;56.86;102167.34;5000590;28;20003;-82
2022/03/12 10:26:25;;;;;;;;;;;;;;;6.17;56.30;102172.00;5002932;28;20396;-83
2022/03/12 10:28:50;;;;;;;;;;;;;;;6.12;57.07;102169.94;4978680;28;19933;-81
2022/03/12 10:31:18;;;;;;;;;;;;;;;6.09;57.33;102174.97;4986620;28;20404;-82
2022/03/12 10:33:43;;;;;;;;;;;;;;;6.04;57.06;102175.59;4982739;28;19926;-84
2022/03/12 10:36:10;;;;;;;;;;;;;;;6.05;57.67;102172.66;4987483;28;19926;-84
2022/03/12 10:38:39;;;;;;;;;;;;;;;6.09;57.62;102175.81;4985578;28;19980;-84
2022/03/12 10:41:05;;;;;;;;;;;;;;;6.08;57.50;102178.75;4993165;28;20472;-83
2022/03/12 10:43:33;;;;;;;;;;;;;;;6.00;57.72;102185.25;4986431;28;20024;-81
2022/03/12 10:45:58;;;;;;;;;;;;;;;5.99;57.60;102178.13;4982005;28;20290;-80
2022/03/12 10:48:25;;;;;;;;;;;;;;;5.96;57.62;102182.13;4991411;28;19929;-80
2022/03/12 10:50:51;;;;;;;;;;;;;;;5.97;58.05;102189.25;4987257;28;19971;-81
2022/03/12 10:53:17;;;;;;;;;;;;;;;5.97;57.96;102186.53;4992321;28;19930;-81
2022/03/12 10:55:43;;;;;;;;;;;;;;;5.98;57.84;102182.75;4997244;28;20550;-80
2022/03/12 10:58:13;;;;;;;;;;;;;;;6.04;57.99;102172.88;4986414;28;20392;-78
2022/03/12 11:00:39;;;;;;;;;;;;;;;6.05;58.60;102180.00;4985905;28;20041;-78
2022/03/12 11:03:08;;;;;;;;;;;;;;;6.03;58.52;102177.47;4980230;28;19941;-79
2022/03/12 11:05:35;;;;;;;;;;;;;;;6.03;57.94;102171.19;4978730;28;19926;-78
2022/03/12 11:08:09;;;;;;;;;;;;;;;6.08;58.30;102165.97;4987488;28;19929;-78
2022/03/12 11:10:37;;;;;;;;;;;;;;;6.10;58.24;102163.84;4971939;28;20038;-80
2022/03/12 11:13:03;;;;;;;;;;;;;;;6.12;58.29;102169.94;4987703;28;19930;-78
2022/03/12 11:15:32;;;;;;;;;;;;;;;6.15;58.54;102164.03;4990535;28;20024;-78
2022/03/12 11:17:57;;;;;;;;;;;;;;;6.15;58.55;102169.50;5000150;28;20495;-77
2022/03/12 11:20:27;;;;;;;;;;;;;;;6.17;58.92;102167.38;4987462;28;20028;-79
2022/03/12 11:23:27;;;;;;;;;;;;;;;6.23;58.85;102166.53;4985549;28;19926;-78
2022/03/12 11:25:59;;;;;;;;;;;;;;;6.31;58.42;102169.03;4988675;28;20388;-77
2022/03/12 11:28:25;;;;;;;;;;;;;;;6.35;58.23;102170.25;4988977;28;19995;-77
2022/03/12 11:30:51;;;;;;;;;;;;;;;6.44;58.31;102170.03;4992342;28;20468;-76
2022/03/12 11:33:17;;;;;;;;;;;;;;;6.53;58.87;102166.81;4988502;28;20071;-78
2022/03/12 11:35:44;;;;;;;;;;;;;;;6.73;58.09;102166.72;4990476;28;19930;-78
2022/03/12 11:38:10;;;;;;;;;;;;;;;6.86;58.97;102165.81;4987178;28;19925;-77
2022/03/12 11:40:40;;;;;;;;;;;;;;;7.14;57.55;102163.53;4986398;28;19935;-81
2022/03/12 11:43:18;;;;;;;;;;;;;;;7.42;56.59;102174.00;4974346;28;20458;-80
2022/03/12 11:45:44;;;;;;;;;;;;;;;7.60;56.16;102156.00;4990064;28;19926;-81
2022/03/12 11:48:11;;;;;;;;;;;;;;;7.74;55.70;102157.56;4993822;28;19937;-80
2022/03/12 11:50:37;;;;;;;;;;;;;;;8.00;55.47;102156.47;4989180;28;19930;-80
2022/03/12 11:53:02;;;;;;;;;;;;;;;8.22;54.83;102145.91;4988717;28;19922;-80
2022/03/12 11:55:28;;;;;;;;;;;;;;;8.40;54.63;102156.88;4959155;28;19956;-79
2022/03/12 11:58:19;;;;;;;;;;;;;;;8.53;53.74;102147.66;4988125;28;20356;-79
2022/03/12 12:01:22;;;;;;;;;;;;;;;8.80;53.75;102142.63;4992430;28;19982;-80
2022/03/12 12:03:55;;;;;;;;;;;;;;;8.85;52.74;102154.59;4995081;28;19925;-78
2022/03/12 12:06:40;;;;;;;;;;;;;;;8.76;52.89;102148.59;4994458;28;20597;-78
2022/03/12 12:09:12;;;;;;;;;;;;;;;8.55;52.25;102143.63;4994485;28;19930;-80
2022/03/12 12:11:38;;;;;;;;;;;;;;;8.38;53.19;102145.31;4991046;28;19980;-79
2022/03/12 12:14:06;;;;;;;;;;;;;;;8.34;53.31;102146.84;4994808;28;20455;-82
2022/03/12 12:16:31;;;;;;;;;;;;;;;8.34;52.65;102144.94;4998526;28;19926;-82
2022/03/12 12:18:58;;;;;;;;;;;;;;;8.36;52.71;102144.72;4987137;28;19948;-79
2022/03/12 12:21:33;;;;;;;;;;;;;;;8.31;53.76;102142.63;4995090;28;19933;-79
2022/03/12 12:24:00;;;;;;;;;;;;;;;8.29;53.73;102146.66;4993050;28;19976;-76
2022/03/12 12:26:26;;;;;;;;;;;;;;;8.25;53.19;102148.19;4990270;28;19930;-78
2022/03/12 12:29:01;;;;;;;;;;;;;;;8.18;53.98;102147.44;4992647;28;20025;-78
2022/03/12 12:31:27;;;;;;;;;;;;;;;8.14;53.29;102142.41;4992138;28;20017;-78
2022/03/12 12:34:05;;;;;;;;;;;;;;;8.11;53.14;102158.44;4984450;28;19926;-79
2022/03/12 12:36:37;;;;;;;;;;;;;;;8.01;53.58;102149.94;4974303;28;20020;-78
2022/03/12 12:39:07;;;;;;;;;;;;;;;7.97;53.50;102157.72;4994241;28;20028;-79
2022/03/12 12:41:53;;;;;;;;;;;;;;;7.92;53.97;102159.47;4989467;28;19925;-79